<?xml version='1.0' encoding='UTF-8'?>
<gpx version="1.1" creator="https://www.komoot.de" xmlns="http://www.topografix.com/GPX/1/1" xmlns:xsi="http://www.w3.org/2001/XMLSchema-instance" xsi:schemaLocation="http://www.topografix.com/GPX/1/1 http://www.topografix.com/GPX/1/1/gpx.xsd">
  <metadata>
    <name>Wandeling Nyswiller-Mechelen</name>
    <author>
      <link href="https://www.komoot.de">
        <text>komoot</text>
        <type>text/html</type>
      </link>
    </author>
  </metadata>
  <trk>
    <name>Wandeling Nyswiller-Mechelen</name>
    <trkseg>
      <trkpt lat="50.808353" lon="5.957861">
        <ele>120.629347</ele>
        <time>2024-01-29T20:13:48.021Z</time>
      </trkpt>
      <trkpt lat="50.808359" lon="5.957848">
        <ele>120.629347</ele>
        <time>2024-01-29T20:13:49.483Z</time>
      </trkpt>
      <trkpt lat="50.808506" lon="5.957505">
        <ele>120.629347</ele>
        <time>2024-01-29T20:14:27.753Z</time>
      </trkpt>
      <trkpt lat="50.808364" lon="5.957310">
        <ele>120.629347</ele>
        <time>2024-01-29T20:14:55.621Z</time>
      </trkpt>
      <trkpt lat="50.808130" lon="5.957103">
        <ele>120.629347</ele>
        <time>2024-01-29T20:15:35.629Z</time>
      </trkpt>
      <trkpt lat="50.808086" lon="5.957065">
        <ele>120.629347</ele>
        <time>2024-01-29T20:15:43.176Z</time>
      </trkpt>
      <trkpt lat="50.807333" lon="5.956252">
        <ele>124.723072</ele>
        <time>2024-01-29T20:18:06.614Z</time>
      </trkpt>
      <trkpt lat="50.807201" lon="5.956111">
        <ele>125.547788</ele>
        <time>2024-01-29T20:18:32.703Z</time>
      </trkpt>
      <trkpt lat="50.807172" lon="5.956080">
        <ele>125.729017</ele>
        <time>2024-01-29T20:18:38.654Z</time>
      </trkpt>
      <trkpt lat="50.807158" lon="5.956065">
        <ele>125.816570</ele>
        <time>2024-01-29T20:18:41.559Z</time>
      </trkpt>
      <trkpt lat="50.807146" lon="5.956052">
        <ele>125.891879</ele>
        <time>2024-01-29T20:18:44.014Z</time>
      </trkpt>
      <trkpt lat="50.807131" lon="5.956037">
        <ele>125.983766</ele>
        <time>2024-01-29T20:18:46.928Z</time>
      </trkpt>
      <trkpt lat="50.807120" lon="5.956025">
        <ele>126.052953</ele>
        <time>2024-01-29T20:18:49.172Z</time>
      </trkpt>
      <trkpt lat="50.807106" lon="5.956011">
        <ele>126.138714</ele>
        <time>2024-01-29T20:18:52.061Z</time>
      </trkpt>
      <trkpt lat="50.807083" lon="5.956028">
        <ele>126.270171</ele>
        <time>2024-01-29T20:18:56.292Z</time>
      </trkpt>
      <trkpt lat="50.807070" lon="5.956013">
        <ele>126.353487</ele>
        <time>2024-01-29T20:18:59.057Z</time>
      </trkpt>
      <trkpt lat="50.807022" lon="5.956125">
        <ele>126.796340</ele>
        <time>2024-01-29T20:19:13.222Z</time>
      </trkpt>
      <trkpt lat="50.806977" lon="5.956072">
        <ele>127.086831</ele>
        <time>2024-01-29T20:19:22.803Z</time>
      </trkpt>
      <trkpt lat="50.806340" lon="5.955282">
        <ele>132.228134</ele>
        <time>2024-01-29T20:21:45.003Z</time>
      </trkpt>
      <trkpt lat="50.806140" lon="5.954973">
        <ele>134.706464</ele>
        <time>2024-01-29T20:22:35.431Z</time>
      </trkpt>
      <trkpt lat="50.805713" lon="5.954177">
        <ele>140.556753</ele>
        <time>2024-01-29T20:24:36.953Z</time>
      </trkpt>
      <trkpt lat="50.805423" lon="5.953810">
        <ele>143.849170</ele>
        <time>2024-01-29T20:25:45.955Z</time>
      </trkpt>
      <trkpt lat="50.805335" lon="5.953730">
        <ele>144.749011</ele>
        <time>2024-01-29T20:26:04.628Z</time>
      </trkpt>
      <trkpt lat="50.805068" lon="5.953626">
        <ele>147.026846</ele>
        <time>2024-01-29T20:26:55.521Z</time>
      </trkpt>
      <trkpt lat="50.804405" lon="5.953233">
        <ele>152.528360</ele>
        <time>2024-01-29T20:29:04.289Z</time>
      </trkpt>
      <trkpt lat="50.804205" lon="5.953039">
        <ele>154.351243</ele>
        <time>2024-01-29T20:29:46.071Z</time>
      </trkpt>
      <trkpt lat="50.804057" lon="5.952887">
        <ele>155.722295</ele>
        <time>2024-01-29T20:30:17.470Z</time>
      </trkpt>
      <trkpt lat="50.803777" lon="5.952494">
        <ele>158.630675</ele>
        <time>2024-01-29T20:31:22.178Z</time>
      </trkpt>
      <trkpt lat="50.802681" lon="5.951830">
        <ele>163.231811</ele>
        <time>2024-01-29T20:34:32.579Z</time>
      </trkpt>
      <trkpt lat="50.801766" lon="5.951070">
        <ele>165.718240</ele>
        <time>2024-01-29T20:37:04.831Z</time>
      </trkpt>
      <trkpt lat="50.801638" lon="5.950908">
        <ele>165.642970</ele>
        <time>2024-01-29T20:37:27.864Z</time>
      </trkpt>
      <trkpt lat="50.801501" lon="5.950664">
        <ele>165.548245</ele>
        <time>2024-01-29T20:37:56.809Z</time>
      </trkpt>
      <trkpt lat="50.800995" lon="5.949435">
        <ele>165.122545</ele>
        <time>2024-01-29T20:40:09.415Z</time>
      </trkpt>
      <trkpt lat="50.800716" lon="5.948855">
        <ele>164.746770</ele>
        <time>2024-01-29T20:41:16.052Z</time>
      </trkpt>
      <trkpt lat="50.800740" lon="5.948811">
        <ele>164.700955</ele>
        <time>2024-01-29T20:41:21.378Z</time>
      </trkpt>
      <trkpt lat="50.801279" lon="5.947841">
        <ele>163.682815</ele>
        <time>2024-01-29T20:43:18.903Z</time>
      </trkpt>
      <trkpt lat="50.801667" lon="5.946933">
        <ele>162.818816</ele>
        <time>2024-01-29T20:44:58.320Z</time>
      </trkpt>
      <trkpt lat="50.801868" lon="5.946255">
        <ele>162.208403</ele>
        <time>2024-01-29T20:46:06.100Z</time>
      </trkpt>
      <trkpt lat="50.802298" lon="5.944460">
        <ele>160.638401</ele>
        <time>2024-01-29T20:49:00.503Z</time>
      </trkpt>
      <trkpt lat="50.802790" lon="5.942106">
        <ele>157.412618</ele>
        <time>2024-01-29T20:52:48.018Z</time>
      </trkpt>
      <trkpt lat="50.803139" lon="5.941284">
        <ele>155.550054</ele>
        <time>2024-01-29T20:54:21.351Z</time>
      </trkpt>
      <trkpt lat="50.803334" lon="5.941056">
        <ele>154.498473</ele>
        <time>2024-01-29T20:54:57.978Z</time>
      </trkpt>
      <trkpt lat="50.803458" lon="5.940855">
        <ele>153.728564</ele>
        <time>2024-01-29T20:55:24.867Z</time>
      </trkpt>
      <trkpt lat="50.803494" lon="5.940697">
        <ele>153.268205</ele>
        <time>2024-01-29T20:55:40.968Z</time>
      </trkpt>
      <trkpt lat="50.803488" lon="5.939442">
        <ele>149.828190</ele>
        <time>2024-01-29T20:57:42.900Z</time>
      </trkpt>
      <trkpt lat="50.803510" lon="5.939215">
        <ele>149.198716</ele>
        <time>2024-01-29T20:58:05.534Z</time>
      </trkpt>
      <trkpt lat="50.804127" lon="5.936487">
        <ele>139.560768</ele>
        <time>2024-01-29T21:02:50.633Z</time>
      </trkpt>
      <trkpt lat="50.804202" lon="5.936288">
        <ele>138.850604</ele>
        <time>2024-01-29T21:03:12.987Z</time>
      </trkpt>
      <trkpt lat="50.804560" lon="5.935570">
        <ele>136.257439</ele>
        <time>2024-01-29T21:04:41.246Z</time>
      </trkpt>
      <trkpt lat="50.805264" lon="5.934047">
        <ele>130.922861</ele>
        <time>2024-01-29T21:07:43.048Z</time>
      </trkpt>
      <trkpt lat="50.805310" lon="5.933833">
        <ele>130.323164</ele>
        <time>2024-01-29T21:08:04.860Z</time>
      </trkpt>
      <trkpt lat="50.805328" lon="5.933754">
        <ele>130.100367</ele>
        <time>2024-01-29T21:08:12.948Z</time>
      </trkpt>
      <trkpt lat="50.805343" lon="5.933671">
        <ele>129.871337</ele>
        <time>2024-01-29T21:08:21.267Z</time>
      </trkpt>
      <trkpt lat="50.805657" lon="5.932019">
        <ele>125.294572</ele>
        <time>2024-01-29T21:11:07.186Z</time>
      </trkpt>
      <trkpt lat="50.805953" lon="5.931278">
        <ele>123.084418</ele>
        <time>2024-01-29T21:12:31.360Z</time>
      </trkpt>
      <trkpt lat="50.806123" lon="5.930722">
        <ele>121.746400</ele>
        <time>2024-01-29T21:13:30.404Z</time>
      </trkpt>
      <trkpt lat="50.806686" lon="5.928469">
        <ele>116.773139</ele>
        <time>2024-01-29T21:17:18.969Z</time>
      </trkpt>
      <trkpt lat="50.806770" lon="5.928034">
        <ele>116.077669</ele>
        <time>2024-01-29T21:18:01.472Z</time>
      </trkpt>
      <trkpt lat="50.806911" lon="5.926830">
        <ele>114.205426</ele>
        <time>2024-01-29T21:19:55.191Z</time>
      </trkpt>
      <trkpt lat="50.806240" lon="5.925454">
        <ele>111.777460</ele>
        <time>2024-01-29T21:22:34.918Z</time>
      </trkpt>
      <trkpt lat="50.805828" lon="5.924727">
        <ele>110.507858</ele>
        <time>2024-01-29T21:24:04.640Z</time>
      </trkpt>
      <trkpt lat="50.805806" lon="5.924687">
        <ele>110.438914</ele>
        <time>2024-01-29T21:24:09.516Z</time>
      </trkpt>
      <trkpt lat="50.805850" lon="5.924629">
        <ele>110.321096</ele>
        <time>2024-01-29T21:24:17.896Z</time>
      </trkpt>
      <trkpt lat="50.805410" lon="5.923826">
        <ele>108.709206</ele>
        <time>2024-01-29T21:25:56.551Z</time>
      </trkpt>
      <trkpt lat="50.804880" lon="5.922598">
        <ele>105.768212</ele>
        <time>2024-01-29T21:28:16.929Z</time>
      </trkpt>
      <trkpt lat="50.804806" lon="5.922335">
        <ele>105.198842</ele>
        <time>2024-01-29T21:28:44.123Z</time>
      </trkpt>
      <trkpt lat="50.804791" lon="5.922109">
        <ele>104.749413</ele>
        <time>2024-01-29T21:29:05.783Z</time>
      </trkpt>
      <trkpt lat="50.804811" lon="5.921654">
        <ele>103.847366</ele>
        <time>2024-01-29T21:29:49.156Z</time>
      </trkpt>
      <trkpt lat="50.804737" lon="5.920408">
        <ele>101.766005</ele>
        <time>2024-01-29T21:31:47.425Z</time>
      </trkpt>
      <trkpt lat="50.804585" lon="5.918846">
        <ele>99.157569</ele>
        <time>2024-01-29T21:34:13.999Z</time>
      </trkpt>
      <trkpt lat="50.804385" lon="5.918717">
        <ele>98.886454</ele>
        <time>2024-01-29T21:34:45.231Z</time>
      </trkpt>
      <trkpt lat="50.804211" lon="5.918560">
        <ele>98.695825</ele>
        <time>2024-01-29T21:35:14.102Z</time>
      </trkpt>
      <trkpt lat="50.803815" lon="5.918083">
        <ele>98.222173</ele>
        <time>2024-01-29T21:36:25.288Z</time>
      </trkpt>
      <trkpt lat="50.803764" lon="5.918097">
        <ele>98.172911</ele>
        <time>2024-01-29T21:36:32.762Z</time>
      </trkpt>
      <trkpt lat="50.803764" lon="5.918097">
        <ele>98.172911</ele>
        <time>2024-01-29T21:36:32.762Z</time>
      </trkpt>
      <trkpt lat="50.803635" lon="5.918335">
        <ele>97.984327</ele>
        <time>2024-01-29T21:37:00.977Z</time>
      </trkpt>
      <trkpt lat="50.803500" lon="5.918426">
        <ele>97.844673</ele>
        <time>2024-01-29T21:37:21.768Z</time>
      </trkpt>
      <trkpt lat="50.802956" lon="5.918353">
        <ele>97.342776</ele>
        <time>2024-01-29T21:38:38.817Z</time>
      </trkpt>
      <trkpt lat="50.802675" lon="5.918392">
        <ele>97.345176</ele>
        <time>2024-01-29T21:39:18.515Z</time>
      </trkpt>
      <trkpt lat="50.802535" lon="5.918535">
        <ele>97.346594</ele>
        <time>2024-01-29T21:39:41.889Z</time>
      </trkpt>
      <trkpt lat="50.802465" lon="5.918685">
        <ele>97.347596</ele>
        <time>2024-01-29T21:39:58.463Z</time>
      </trkpt>
      <trkpt lat="50.802400" lon="5.918917">
        <ele>97.348961</ele>
        <time>2024-01-29T21:40:21.052Z</time>
      </trkpt>
      <trkpt lat="50.802379" lon="5.918918">
        <ele>97.349140</ele>
        <time>2024-01-29T21:40:24.017Z</time>
      </trkpt>
      <trkpt lat="50.802316" lon="5.918917">
        <ele>97.349676</ele>
        <time>2024-01-29T21:40:32.854Z</time>
      </trkpt>
      <trkpt lat="50.802301" lon="5.918915">
        <ele>97.349804</ele>
        <time>2024-01-29T21:40:34.876Z</time>
      </trkpt>
      <trkpt lat="50.802202" lon="5.918709">
        <ele>97.351195</ele>
        <time>2024-01-29T21:40:57.959Z</time>
      </trkpt>
      <trkpt lat="50.802095" lon="5.918565">
        <ele>97.352390</ele>
        <time>2024-01-29T21:41:17.689Z</time>
      </trkpt>
      <trkpt lat="50.801954" lon="5.918481">
        <ele>97.353672</ele>
        <time>2024-01-29T21:41:39.012Z</time>
      </trkpt>
      <trkpt lat="50.801888" lon="5.918588">
        <ele>97.354476</ele>
        <time>2024-01-29T21:41:52.362Z</time>
      </trkpt>
      <trkpt lat="50.801834" lon="5.919037">
        <ele>97.356934</ele>
        <time>2024-01-29T21:42:33.237Z</time>
      </trkpt>
      <trkpt lat="50.801732" lon="5.919245">
        <ele>97.377476</ele>
        <time>2024-01-29T21:42:56.780Z</time>
      </trkpt>
      <trkpt lat="50.801642" lon="5.919325">
        <ele>97.417667</ele>
        <time>2024-01-29T21:43:11.424Z</time>
      </trkpt>
      <trkpt lat="50.801572" lon="5.919332">
        <ele>97.444974</ele>
        <time>2024-01-29T21:43:21.269Z</time>
      </trkpt>
      <trkpt lat="50.801383" lon="5.919150">
        <ele>97.531115</ele>
        <time>2024-01-29T21:43:52.657Z</time>
      </trkpt>
      <trkpt lat="50.801234" lon="5.919054">
        <ele>97.593751</ele>
        <time>2024-01-29T21:44:15.414Z</time>
      </trkpt>
      <trkpt lat="50.801013" lon="5.918983">
        <ele>97.681549</ele>
        <time>2024-01-29T21:44:47.328Z</time>
      </trkpt>
      <trkpt lat="50.800969" lon="5.918969">
        <ele>97.699023</ele>
        <time>2024-01-29T21:44:53.767Z</time>
      </trkpt>
      <trkpt lat="50.800855" lon="5.918986">
        <ele>97.743604</ele>
        <time>2024-01-29T21:45:09.896Z</time>
      </trkpt>
      <trkpt lat="50.800730" lon="5.919042">
        <ele>97.794184</ele>
        <time>2024-01-29T21:45:28.499Z</time>
      </trkpt>
      <trkpt lat="50.800050" lon="5.919511">
        <ele>98.098559</ele>
        <time>2024-01-29T21:47:14.285Z</time>
      </trkpt>
      <trkpt lat="50.799936" lon="5.919639">
        <ele>98.187153</ele>
        <time>2024-01-29T21:47:34.146Z</time>
      </trkpt>
      <trkpt lat="50.799718" lon="5.919708">
        <ele>98.328052</ele>
        <time>2024-01-29T21:48:05.938Z</time>
      </trkpt>
      <trkpt lat="50.799718" lon="5.919708">
        <ele>98.328052</ele>
        <time>2024-01-29T21:48:05.938Z</time>
      </trkpt>
      <trkpt lat="50.799711" lon="5.919711">
        <ele>98.332649</ele>
        <time>2024-01-29T21:48:06.887Z</time>
      </trkpt>
      <trkpt lat="50.799643" lon="5.919862">
        <ele>98.406917</ele>
        <time>2024-01-29T21:48:23.600Z</time>
      </trkpt>
      <trkpt lat="50.799242" lon="5.919922">
        <ele>98.662193</ele>
        <time>2024-01-29T21:49:20.976Z</time>
      </trkpt>
      <trkpt lat="50.798580" lon="5.919869">
        <ele>99.082287</ele>
        <time>2024-01-29T21:50:55.928Z</time>
      </trkpt>
      <trkpt lat="50.798053" lon="5.920087">
        <ele>99.590051</ele>
        <time>2024-01-29T21:52:15.139Z</time>
      </trkpt>
      <trkpt lat="50.798053" lon="5.920087">
        <ele>99.590051</ele>
        <time>2024-01-29T21:52:15.139Z</time>
      </trkpt>
      <trkpt lat="50.797725" lon="5.920240">
        <ele>99.960341</ele>
        <time>2024-01-29T21:53:05.213Z</time>
      </trkpt>
      <trkpt lat="50.797725" lon="5.920240">
        <ele>99.960341</ele>
        <time>2024-01-29T21:53:05.213Z</time>
      </trkpt>
      <trkpt lat="50.796868" lon="5.920478">
        <ele>100.902532</ele>
        <time>2024-01-29T21:55:12.406Z</time>
      </trkpt>
      <trkpt lat="50.796868" lon="5.920478">
        <ele>100.902532</ele>
        <time>2024-01-29T21:55:12.406Z</time>
      </trkpt>
      <trkpt lat="50.796051" lon="5.920946">
        <ele>101.698266</ele>
        <time>2024-01-29T21:57:17.818Z</time>
      </trkpt>
      <trkpt lat="50.795823" lon="5.921047">
        <ele>101.901305</ele>
        <time>2024-01-29T21:57:52.222Z</time>
      </trkpt>
      <trkpt lat="50.794832" lon="5.921010">
        <ele>102.715101</ele>
        <time>2024-01-29T22:00:15.042Z</time>
      </trkpt>
      <trkpt lat="50.794831" lon="5.921185">
        <ele>102.755508</ele>
        <time>2024-01-29T22:00:31.227Z</time>
      </trkpt>
      <trkpt lat="50.794871" lon="5.921910">
        <ele>102.923535</ele>
        <time>2024-01-29T22:01:36.948Z</time>
      </trkpt>
      <trkpt lat="50.794847" lon="5.921914">
        <ele>102.932350</ele>
        <time>2024-01-29T22:01:40.321Z</time>
      </trkpt>
      <trkpt lat="50.794798" lon="5.921926">
        <ele>102.950461</ele>
        <time>2024-01-29T22:01:47.340Z</time>
      </trkpt>
      <trkpt lat="50.794769" lon="5.921931">
        <ele>102.961117</ele>
        <time>2024-01-29T22:01:51.467Z</time>
      </trkpt>
      <trkpt lat="50.794790" lon="5.922195">
        <ele>103.022551</ele>
        <time>2024-01-29T22:02:15.585Z</time>
      </trkpt>
      <trkpt lat="50.794526" lon="5.922243">
        <ele>103.119616</ele>
        <time>2024-01-29T22:02:53.023Z</time>
      </trkpt>
      <trkpt lat="50.794466" lon="5.922282">
        <ele>103.143309</ele>
        <time>2024-01-29T22:03:02.516Z</time>
      </trkpt>
      <trkpt lat="50.794336" lon="5.922464">
        <ele>103.206717</ele>
        <time>2024-01-29T22:03:27.009Z</time>
      </trkpt>
      <trkpt lat="50.794240" lon="5.922307">
        <ele>103.257151</ele>
        <time>2024-01-29T22:03:46.322Z</time>
      </trkpt>
      <trkpt lat="50.793832" lon="5.922270">
        <ele>103.284359</ele>
        <time>2024-01-29T22:04:44.221Z</time>
      </trkpt>
      <trkpt lat="50.793152" lon="5.922214">
        <ele>103.037386</ele>
        <time>2024-01-29T22:06:20.333Z</time>
      </trkpt>
      <trkpt lat="50.793099" lon="5.922235">
        <ele>103.017569</ele>
        <time>2024-01-29T22:06:28.114Z</time>
      </trkpt>
      <trkpt lat="50.792934" lon="5.922105">
        <ele>102.950712</ele>
        <time>2024-01-29T22:06:54.151Z</time>
      </trkpt>
      <trkpt lat="50.792934" lon="5.922105">
        <ele>102.950712</ele>
        <time>2024-01-29T22:06:54.151Z</time>
      </trkpt>
      <trkpt lat="50.792486" lon="5.921969">
        <ele>102.785256</ele>
        <time>2024-01-29T22:07:59.009Z</time>
      </trkpt>
      <trkpt lat="50.791662" lon="5.921954">
        <ele>102.601045</ele>
        <time>2024-01-29T22:09:55.837Z</time>
      </trkpt>
      <trkpt lat="50.791662" lon="5.921954">
        <ele>102.601045</ele>
        <time>2024-01-29T22:09:55.837Z</time>
      </trkpt>
      <trkpt lat="50.791611" lon="5.921941">
        <ele>102.592717</ele>
        <time>2024-01-29T22:10:03.139Z</time>
      </trkpt>
      <trkpt lat="50.791481" lon="5.921935">
        <ele>102.571750</ele>
        <time>2024-01-29T22:10:21.502Z</time>
      </trkpt>
      <trkpt lat="50.791160" lon="5.922001">
        <ele>102.519564</ele>
        <time>2024-01-29T22:11:06.914Z</time>
      </trkpt>
      <trkpt lat="50.791007" lon="5.921968">
        <ele>102.494669</ele>
        <time>2024-01-29T22:11:28.628Z</time>
      </trkpt>
      <trkpt lat="50.791007" lon="5.921968">
        <ele>102.494669</ele>
        <time>2024-01-29T22:11:28.628Z</time>
      </trkpt>
      <trkpt lat="50.790802" lon="5.921932">
        <ele>102.461416</ele>
        <time>2024-01-29T22:11:57.684Z</time>
      </trkpt>
      <trkpt lat="50.790479" lon="5.921753">
        <ele>102.406240</ele>
        <time>2024-01-29T22:12:46.039Z</time>
      </trkpt>
      <trkpt lat="50.789882" lon="5.921542">
        <ele>102.438621</ele>
        <time>2024-01-29T22:14:12.370Z</time>
      </trkpt>
      <trkpt lat="50.789550" lon="5.921569">
        <ele>102.458769</ele>
        <time>2024-01-29T22:14:59.065Z</time>
      </trkpt>
      <trkpt lat="50.789301" lon="5.921528">
        <ele>102.473942</ele>
        <time>2024-01-29T22:15:34.192Z</time>
      </trkpt>
      <trkpt lat="50.789550" lon="5.921569">
        <ele>102.489114</ele>
        <time>2024-01-29T22:16:09.303Z</time>
      </trkpt>
      <trkpt lat="50.789882" lon="5.921542">
        <ele>102.509262</ele>
        <time>2024-01-29T22:16:55.943Z</time>
      </trkpt>
      <trkpt lat="50.790479" lon="5.921753">
        <ele>102.854722</ele>
        <time>2024-01-29T22:18:21.976Z</time>
      </trkpt>
      <trkpt lat="50.790802" lon="5.921932">
        <ele>103.060887</ele>
        <time>2024-01-29T22:19:10.139Z</time>
      </trkpt>
      <trkpt lat="50.791007" lon="5.921968">
        <ele>103.185135</ele>
        <time>2024-01-29T22:19:39.371Z</time>
      </trkpt>
      <trkpt lat="50.791007" lon="5.921968">
        <ele>103.185135</ele>
        <time>2024-01-29T22:19:39.371Z</time>
      </trkpt>
      <trkpt lat="50.791160" lon="5.922001">
        <ele>103.278153</ele>
        <time>2024-01-29T22:20:01.535Z</time>
      </trkpt>
      <trkpt lat="50.791481" lon="5.921935">
        <ele>103.473145</ele>
        <time>2024-01-29T22:20:48.586Z</time>
      </trkpt>
      <trkpt lat="50.791611" lon="5.921941">
        <ele>103.551489</ele>
        <time>2024-01-29T22:21:07.737Z</time>
      </trkpt>
      <trkpt lat="50.791461" lon="5.922185">
        <ele>104.022954</ele>
        <time>2024-01-29T22:21:39.616Z</time>
      </trkpt>
      <trkpt lat="50.791361" lon="5.922478">
        <ele>104.655082</ele>
        <time>2024-01-29T22:22:11.252Z</time>
      </trkpt>
      <trkpt lat="50.791033" lon="5.923934">
        <ele>107.589454</ele>
        <time>2024-01-29T22:24:42.829Z</time>
      </trkpt>
      <trkpt lat="50.790956" lon="5.924130">
        <ele>108.027547</ele>
        <time>2024-01-29T22:25:06.003Z</time>
      </trkpt>
      <trkpt lat="50.790690" lon="5.925175">
        <ele>110.319497</ele>
        <time>2024-01-29T22:27:01.041Z</time>
      </trkpt>
      <trkpt lat="50.790690" lon="5.925175">
        <ele>110.319497</ele>
        <time>2024-01-29T22:27:01.041Z</time>
      </trkpt>
      <trkpt lat="50.790982" lon="5.926959">
        <ele>114.276622</ele>
        <time>2024-01-29T22:30:04.560Z</time>
      </trkpt>
      <trkpt lat="50.790845" lon="5.927533">
        <ele>115.275532</ele>
        <time>2024-01-29T22:31:03.088Z</time>
      </trkpt>
      <trkpt lat="50.790845" lon="5.927533">
        <ele>115.275532</ele>
        <time>2024-01-29T22:31:03.088Z</time>
      </trkpt>
      <trkpt lat="50.790804" lon="5.927683">
        <ele>115.397165</ele>
        <time>2024-01-29T22:31:18.653Z</time>
      </trkpt>
      <trkpt lat="50.790762" lon="5.927705">
        <ele>115.449256</ele>
        <time>2024-01-29T22:31:25.391Z</time>
      </trkpt>
      <trkpt lat="50.790804" lon="5.927683">
        <ele>115.501347</ele>
        <time>2024-01-29T22:31:31.964Z</time>
      </trkpt>
      <trkpt lat="50.791069" lon="5.927569">
        <ele>115.824687</ele>
        <time>2024-01-29T22:32:12.645Z</time>
      </trkpt>
      <trkpt lat="50.791671" lon="5.927424">
        <ele>116.541646</ele>
        <time>2024-01-29T22:33:40.537Z</time>
      </trkpt>
      <trkpt lat="50.791770" lon="5.927402">
        <ele>116.659352</ele>
        <time>2024-01-29T22:33:54.842Z</time>
      </trkpt>
      <trkpt lat="50.791788" lon="5.927399">
        <ele>116.680663</ele>
        <time>2024-01-29T22:33:57.477Z</time>
      </trkpt>
      <trkpt lat="50.792010" lon="5.927399">
        <ele>116.942044</ele>
        <time>2024-01-29T22:34:28.845Z</time>
      </trkpt>
      <trkpt lat="50.792274" lon="5.927434">
        <ele>117.239281</ele>
        <time>2024-01-29T22:35:06.499Z</time>
      </trkpt>
      <trkpt lat="50.792464" lon="5.927374">
        <ele>117.354706</ele>
        <time>2024-01-29T22:35:33.728Z</time>
      </trkpt>
      <trkpt lat="50.792494" lon="5.927354">
        <ele>117.374101</ele>
        <time>2024-01-29T22:35:38.439Z</time>
      </trkpt>
      <trkpt lat="50.792893" lon="5.926996">
        <ele>117.647377</ele>
        <time>2024-01-29T22:36:43.681Z</time>
      </trkpt>
      <trkpt lat="50.793102" lon="5.926868">
        <ele>117.780893</ele>
        <time>2024-01-29T22:37:15.930Z</time>
      </trkpt>
      <trkpt lat="50.793090" lon="5.927024">
        <ele>117.840074</ele>
        <time>2024-01-29T22:37:30.290Z</time>
      </trkpt>
      <trkpt lat="50.793196" lon="5.928046">
        <ele>118.230092</ele>
        <time>2024-01-29T22:39:04.799Z</time>
      </trkpt>
      <trkpt lat="50.793582" lon="5.927941">
        <ele>118.335144</ele>
        <time>2024-01-29T22:40:00.624Z</time>
      </trkpt>
      <trkpt lat="50.793860" lon="5.928674">
        <ele>118.410725</ele>
        <time>2024-01-29T22:41:17.316Z</time>
      </trkpt>
      <trkpt lat="50.793879" lon="5.928785">
        <ele>118.420893</ele>
        <time>2024-01-29T22:41:27.577Z</time>
      </trkpt>
      <trkpt lat="50.793863" lon="5.928922">
        <ele>118.433212</ele>
        <time>2024-01-29T22:41:39.972Z</time>
      </trkpt>
      <trkpt lat="50.794024" lon="5.929345">
        <ele>118.476869</ele>
        <time>2024-01-29T22:42:23.855Z</time>
      </trkpt>
      <trkpt lat="50.794111" lon="5.929577">
        <ele>118.500721</ele>
        <time>2024-01-29T22:42:47.870Z</time>
      </trkpt>
      <trkpt lat="50.794092" lon="5.929592">
        <ele>118.503691</ele>
        <time>2024-01-29T22:42:50.812Z</time>
      </trkpt>
      <trkpt lat="50.794135" lon="5.929707">
        <ele>118.515505</ele>
        <time>2024-01-29T22:43:02.637Z</time>
      </trkpt>
      <trkpt lat="50.794222" lon="5.929752">
        <ele>118.528308</ele>
        <time>2024-01-29T22:43:15.643Z</time>
      </trkpt>
      <trkpt lat="50.794273" lon="5.929886">
        <ele>118.542138</ele>
        <time>2024-01-29T22:43:29.649Z</time>
      </trkpt>
      <trkpt lat="50.794279" lon="5.930094">
        <ele>118.589013</ele>
        <time>2024-01-29T22:43:48.241Z</time>
      </trkpt>
      <trkpt lat="50.794297" lon="5.930133">
        <ele>118.602508</ele>
        <time>2024-01-29T22:43:52.487Z</time>
      </trkpt>
      <trkpt lat="50.794347" lon="5.929878">
        <ele>118.677115</ele>
        <time>2024-01-29T22:44:16.308Z</time>
      </trkpt>
      <trkpt lat="50.794392" lon="5.929790">
        <ele>118.708745</ele>
        <time>2024-01-29T22:44:26.324Z</time>
      </trkpt>
      <trkpt lat="50.794442" lon="5.929778">
        <ele>118.731102</ele>
        <time>2024-01-29T22:44:33.487Z</time>
      </trkpt>
      <trkpt lat="50.794587" lon="5.929832">
        <ele>118.796956</ele>
        <time>2024-01-29T22:44:54.435Z</time>
      </trkpt>
      <trkpt lat="50.794687" lon="5.929776">
        <ele>118.843853</ele>
        <time>2024-01-29T22:45:09.405Z</time>
      </trkpt>
      <trkpt lat="50.794684" lon="5.929944">
        <ele>118.890817</ele>
        <time>2024-01-29T22:45:24.552Z</time>
      </trkpt>
      <trkpt lat="50.794682" lon="5.930020">
        <ele>118.912073</ele>
        <time>2024-01-29T22:45:31.449Z</time>
      </trkpt>
      <trkpt lat="50.794564" lon="5.930542">
        <ele>119.066989</ele>
        <time>2024-01-29T22:46:21.230Z</time>
      </trkpt>
      <trkpt lat="50.794581" lon="5.930674">
        <ele>119.104633</ele>
        <time>2024-01-29T22:46:33.366Z</time>
      </trkpt>
      <trkpt lat="50.794744" lon="5.931053">
        <ele>119.232731</ele>
        <time>2024-01-29T22:47:15.018Z</time>
      </trkpt>
      <trkpt lat="50.794737" lon="5.931092">
        <ele>119.244060</ele>
        <time>2024-01-29T22:47:18.728Z</time>
      </trkpt>
      <trkpt lat="50.794737" lon="5.931092">
        <ele>119.244060</ele>
        <time>2024-01-29T22:47:18.728Z</time>
      </trkpt>
      <trkpt lat="50.794766" lon="5.931122">
        <ele>119.259378</ele>
        <time>2024-01-29T22:47:23.624Z</time>
      </trkpt>
      <trkpt lat="50.795231" lon="5.932567">
        <ele>120.460484</ele>
        <time>2024-01-29T22:49:54.269Z</time>
      </trkpt>
      <trkpt lat="50.795263" lon="5.932608">
        <ele>120.515493</ele>
        <time>2024-01-29T22:50:00.464Z</time>
      </trkpt>
      <trkpt lat="50.795263" lon="5.932608">
        <ele>120.515493</ele>
        <time>2024-01-29T22:50:00.464Z</time>
      </trkpt>
      <trkpt lat="50.795264" lon="5.932676">
        <ele>120.572929</ele>
        <time>2024-01-29T22:50:06.867Z</time>
      </trkpt>
      <trkpt lat="50.795562" lon="5.934097">
        <ele>121.767799</ele>
        <time>2024-01-29T22:52:27.122Z</time>
      </trkpt>
      <trkpt lat="50.795660" lon="5.934150">
        <ele>121.801660</ele>
        <time>2024-01-29T22:52:41.991Z</time>
      </trkpt>
      <trkpt lat="50.795774" lon="5.934622">
        <ele>121.906082</ele>
        <time>2024-01-29T22:53:27.547Z</time>
      </trkpt>
      <trkpt lat="50.795881" lon="5.935263">
        <ele>122.043091</ele>
        <time>2024-01-29T22:54:26.586Z</time>
      </trkpt>
      <trkpt lat="50.795901" lon="5.935282">
        <ele>122.050718</ele>
        <time>2024-01-29T22:54:29.826Z</time>
      </trkpt>
      <trkpt lat="50.796085" lon="5.935417">
        <ele>122.117030</ele>
        <time>2024-01-29T22:54:58.258Z</time>
      </trkpt>
      <trkpt lat="50.796193" lon="5.935454">
        <ele>122.153159</ele>
        <time>2024-01-29T22:55:13.759Z</time>
      </trkpt>
      <trkpt lat="50.796387" lon="5.935446">
        <ele>122.216608</ele>
        <time>2024-01-29T22:55:41.085Z</time>
      </trkpt>
      <trkpt lat="50.796474" lon="5.935322">
        <ele>122.254893</ele>
        <time>2024-01-29T22:55:57.550Z</time>
      </trkpt>
      <trkpt lat="50.796474" lon="5.935322">
        <ele>122.254893</ele>
        <time>2024-01-29T22:55:57.550Z</time>
      </trkpt>
      <trkpt lat="50.796478" lon="5.935319">
        <ele>122.256340</ele>
        <time>2024-01-29T22:55:58.195Z</time>
      </trkpt>
      <trkpt lat="50.796512" lon="5.935308">
        <ele>122.267686</ele>
        <time>2024-01-29T22:56:03.030Z</time>
      </trkpt>
      <trkpt lat="50.796548" lon="5.935291">
        <ele>122.279970</ele>
        <time>2024-01-29T22:56:08.312Z</time>
      </trkpt>
      <trkpt lat="50.796592" lon="5.935276">
        <ele>122.294685</ele>
        <time>2024-01-29T22:56:14.656Z</time>
      </trkpt>
      <trkpt lat="50.796918" lon="5.935153">
        <ele>122.407206</ele>
        <time>2024-01-29T22:57:01.509Z</time>
      </trkpt>
      <trkpt lat="50.796918" lon="5.935153">
        <ele>122.407206</ele>
        <time>2024-01-29T22:57:01.509Z</time>
      </trkpt>
      <trkpt lat="50.796933" lon="5.935142">
        <ele>122.412837</ele>
        <time>2024-01-29T22:57:03.878Z</time>
      </trkpt>
      <trkpt lat="50.797157" lon="5.936717">
        <ele>122.760326</ele>
        <time>2024-01-29T22:59:27.019Z</time>
      </trkpt>
      <trkpt lat="50.797157" lon="5.936717">
        <ele>122.760326</ele>
        <time>2024-01-29T22:59:27.019Z</time>
      </trkpt>
      <trkpt lat="50.797173" lon="5.936799">
        <ele>122.778798</ele>
        <time>2024-01-29T22:59:34.703Z</time>
      </trkpt>
      <trkpt lat="50.797249" lon="5.936992">
        <ele>122.827743</ele>
        <time>2024-01-29T22:59:55.468Z</time>
      </trkpt>
      <trkpt lat="50.797297" lon="5.937034">
        <ele>122.846423</ele>
        <time>2024-01-29T23:00:03.334Z</time>
      </trkpt>
      <trkpt lat="50.797297" lon="5.937034">
        <ele>122.846423</ele>
        <time>2024-01-29T23:00:03.334Z</time>
      </trkpt>
      <trkpt lat="50.797452" lon="5.938040">
        <ele>123.707691</ele>
        <time>2024-01-29T23:01:39.192Z</time>
      </trkpt>
      <trkpt lat="50.797452" lon="5.938040">
        <ele>123.707691</ele>
        <time>2024-01-29T23:01:39.192Z</time>
      </trkpt>
      <trkpt lat="50.797577" lon="5.938472">
        <ele>124.339018</ele>
        <time>2024-01-29T23:02:23.688Z</time>
      </trkpt>
      <trkpt lat="50.797532" lon="5.939752">
        <ele>126.042490</ele>
        <time>2024-01-29T23:04:25.735Z</time>
      </trkpt>
      <trkpt lat="50.797459" lon="5.940385">
        <ele>127.063108</ele>
        <time>2024-01-29T23:05:29.174Z</time>
      </trkpt>
      <trkpt lat="50.797481" lon="5.940587">
        <ele>127.600331</ele>
        <time>2024-01-29T23:05:49.535Z</time>
      </trkpt>
      <trkpt lat="50.797462" lon="5.940613">
        <ele>127.704497</ele>
        <time>2024-01-29T23:05:53.474Z</time>
      </trkpt>
      <trkpt lat="50.797569" lon="5.940689">
        <ele>128.190841</ele>
        <time>2024-01-29T23:06:12.180Z</time>
      </trkpt>
      <trkpt lat="50.797758" lon="5.940487">
        <ele>129.136607</ele>
        <time>2024-01-29T23:06:48.255Z</time>
      </trkpt>
      <trkpt lat="50.798101" lon="5.940280">
        <ele>130.658840</ele>
        <time>2024-01-29T23:07:46.777Z</time>
      </trkpt>
      <trkpt lat="50.798460" lon="5.939956">
        <ele>132.372623</ele>
        <time>2024-01-29T23:08:53.437Z</time>
      </trkpt>
      <trkpt lat="50.798713" lon="5.939884">
        <ele>133.438541</ele>
        <time>2024-01-29T23:09:35.329Z</time>
      </trkpt>
      <trkpt lat="50.798742" lon="5.939853">
        <ele>133.583665</ele>
        <time>2024-01-29T23:09:41.058Z</time>
      </trkpt>
      <trkpt lat="50.798753" lon="5.939852">
        <ele>133.629353</ele>
        <time>2024-01-29T23:09:42.742Z</time>
      </trkpt>
      <trkpt lat="50.798759" lon="5.939883">
        <ele>133.714322</ele>
        <time>2024-01-29T23:09:46.112Z</time>
      </trkpt>
      <trkpt lat="50.798758" lon="5.940668">
        <ele>136.286091</ele>
        <time>2024-01-29T23:11:08.381Z</time>
      </trkpt>
      <trkpt lat="50.798791" lon="5.941227">
        <ele>138.234675</ele>
        <time>2024-01-29T23:12:08.262Z</time>
      </trkpt>
      <trkpt lat="50.798851" lon="5.941737">
        <ele>140.035149</ele>
        <time>2024-01-29T23:13:03.331Z</time>
      </trkpt>
      <trkpt lat="50.798921" lon="5.942110">
        <ele>141.385591</ele>
        <time>2024-01-29T23:13:44.432Z</time>
      </trkpt>
      <trkpt lat="50.798898" lon="5.942182">
        <ele>141.665586</ele>
        <time>2024-01-29T23:13:52.787Z</time>
      </trkpt>
      <trkpt lat="50.799008" lon="5.942839">
        <ele>144.024497</ele>
        <time>2024-01-29T23:15:04.073Z</time>
      </trkpt>
      <trkpt lat="50.799041" lon="5.943339">
        <ele>145.754717</ele>
        <time>2024-01-29T23:15:56.964Z</time>
      </trkpt>
      <trkpt lat="50.799039" lon="5.943419">
        <ele>146.030220</ele>
        <time>2024-01-29T23:16:05.486Z</time>
      </trkpt>
      <trkpt lat="50.799121" lon="5.943438">
        <ele>146.481422</ele>
        <time>2024-01-29T23:16:19.196Z</time>
      </trkpt>
      <trkpt lat="50.799200" lon="5.943519">
        <ele>146.993946</ele>
        <time>2024-01-29T23:16:34.992Z</time>
      </trkpt>
      <trkpt lat="50.799326" lon="5.943742">
        <ele>148.023230</ele>
        <time>2024-01-29T23:17:06.830Z</time>
      </trkpt>
      <trkpt lat="50.799425" lon="5.944111">
        <ele>149.402644</ele>
        <time>2024-01-29T23:17:49.269Z</time>
      </trkpt>
      <trkpt lat="50.799639" lon="5.945353">
        <ele>153.832393</ele>
        <time>2024-01-29T23:20:05.056Z</time>
      </trkpt>
      <trkpt lat="50.799792" lon="5.946058">
        <ele>155.862005</ele>
        <time>2024-01-29T23:21:22.030Z</time>
      </trkpt>
      <trkpt lat="50.800022" lon="5.946663">
        <ele>157.779898</ele>
        <time>2024-01-29T23:22:34.558Z</time>
      </trkpt>
      <trkpt lat="50.800358" lon="5.947371">
        <ele>160.185017</ele>
        <time>2024-01-29T23:24:03.981Z</time>
      </trkpt>
      <trkpt lat="50.800490" lon="5.947704">
        <ele>161.252802</ele>
        <time>2024-01-29T23:24:43.219Z</time>
      </trkpt>
      <trkpt lat="50.800630" lon="5.948222">
        <ele>162.232823</ele>
        <time>2024-01-29T23:25:38.807Z</time>
      </trkpt>
      <trkpt lat="50.800740" lon="5.948811">
        <ele>163.134581</ele>
        <time>2024-01-29T23:26:38.785Z</time>
      </trkpt>
      <trkpt lat="50.800716" lon="5.948855">
        <ele>163.219915</ele>
        <time>2024-01-29T23:26:44.402Z</time>
      </trkpt>
      <trkpt lat="50.800995" lon="5.949435">
        <ele>164.290088</ele>
        <time>2024-01-29T23:27:54.587Z</time>
      </trkpt>
      <trkpt lat="50.801501" lon="5.950664">
        <ele>165.518047</ele>
        <time>2024-01-29T23:30:11.265Z</time>
      </trkpt>
      <trkpt lat="50.801638" lon="5.950908">
        <ele>165.344775</ele>
        <time>2024-01-29T23:30:40.272Z</time>
      </trkpt>
      <trkpt lat="50.801766" lon="5.951070">
        <ele>165.207089</ele>
        <time>2024-01-29T23:31:03.307Z</time>
      </trkpt>
      <trkpt lat="50.802681" lon="5.951830">
        <ele>164.339022</ele>
        <time>2024-01-29T23:33:32.412Z</time>
      </trkpt>
      <trkpt lat="50.803777" lon="5.952494">
        <ele>160.810844</ele>
        <time>2024-01-29T23:36:27.631Z</time>
      </trkpt>
      <trkpt lat="50.804057" lon="5.952887">
        <ele>159.608108</ele>
        <time>2024-01-29T23:37:23.367Z</time>
      </trkpt>
      <trkpt lat="50.804205" lon="5.953039">
        <ele>159.041121</ele>
        <time>2024-01-29T23:37:50.014Z</time>
      </trkpt>
      <trkpt lat="50.804269" lon="5.953246">
        <ele>158.573130</ele>
        <time>2024-01-29T23:38:11.989Z</time>
      </trkpt>
      <trkpt lat="50.804308" lon="5.953348">
        <ele>158.220353</ele>
        <time>2024-01-29T23:38:23.461Z</time>
      </trkpt>
      <trkpt lat="50.804301" lon="5.953419">
        <ele>157.960755</ele>
        <time>2024-01-29T23:38:30.303Z</time>
      </trkpt>
      <trkpt lat="50.803887" lon="5.954413">
        <ele>153.660096</ele>
        <time>2024-01-29T23:40:25.037Z</time>
      </trkpt>
      <trkpt lat="50.803843" lon="5.954574">
        <ele>153.026406</ele>
        <time>2024-01-29T23:40:42.117Z</time>
      </trkpt>
      <trkpt lat="50.804631" lon="5.955989">
        <ele>145.126889</ele>
        <time>2024-01-29T23:43:52.950Z</time>
      </trkpt>
      <trkpt lat="50.804631" lon="5.955989">
        <ele>145.126889</ele>
        <time>2024-01-29T23:43:52.950Z</time>
      </trkpt>
      <trkpt lat="50.804806" lon="5.956683">
        <ele>140.945490</ele>
        <time>2024-01-29T23:45:12.485Z</time>
      </trkpt>
      <trkpt lat="50.804806" lon="5.956683">
        <ele>140.945490</ele>
        <time>2024-01-29T23:45:12.485Z</time>
      </trkpt>
      <trkpt lat="50.805603" lon="5.957546">
        <ele>132.393901</ele>
        <time>2024-01-29T23:47:53.274Z</time>
      </trkpt>
      <trkpt lat="50.805756" lon="5.957693">
        <ele>131.487961</ele>
        <time>2024-01-29T23:48:22.357Z</time>
      </trkpt>
      <trkpt lat="50.805800" lon="5.957679">
        <ele>131.275959</ele>
        <time>2024-01-29T23:48:29.523Z</time>
      </trkpt>
      <trkpt lat="50.806017" lon="5.957980">
        <ele>129.912858</ele>
        <time>2024-01-29T23:49:15.812Z</time>
      </trkpt>
      <trkpt lat="50.806160" lon="5.957730">
        <ele>128.906274</ele>
        <time>2024-01-29T23:49:49.385Z</time>
      </trkpt>
      <trkpt lat="50.806169" lon="5.957741">
        <ele>128.852557</ele>
        <time>2024-01-29T23:49:51.102Z</time>
      </trkpt>
      <trkpt lat="50.806184" lon="5.957763">
        <ele>128.755948</ele>
        <time>2024-01-29T23:49:54.299Z</time>
      </trkpt>
      <trkpt lat="50.806205" lon="5.957793">
        <ele>128.622307</ele>
        <time>2024-01-29T23:49:58.890Z</time>
      </trkpt>
      <trkpt lat="50.806228" lon="5.957824">
        <ele>128.479594</ele>
        <time>2024-01-29T23:50:03.547Z</time>
      </trkpt>
      <trkpt lat="50.806242" lon="5.957844">
        <ele>128.390500</ele>
        <time>2024-01-29T23:50:06.560Z</time>
      </trkpt>
      <trkpt lat="50.806480" lon="5.958193">
        <ele>126.857775</ele>
        <time>2024-01-29T23:50:55.909Z</time>
      </trkpt>
      <trkpt lat="50.806301" lon="5.958500">
        <ele>125.610872</ele>
        <time>2024-01-29T23:51:34.935Z</time>
      </trkpt>
      <trkpt lat="50.806428" lon="5.958681">
        <ele>124.803522</ele>
        <time>2024-01-29T23:52:00.062Z</time>
      </trkpt>
      <trkpt lat="50.806467" lon="5.958724">
        <ele>124.578991</ele>
        <time>2024-01-29T23:52:06.836Z</time>
      </trkpt>
      <trkpt lat="50.806725" lon="5.958782">
        <ele>123.726704</ele>
        <time>2024-01-29T23:52:44.362Z</time>
      </trkpt>
      <trkpt lat="50.807028" lon="5.958956">
        <ele>123.576428</ele>
        <time>2024-01-29T23:53:29.436Z</time>
      </trkpt>
      <trkpt lat="50.807099" lon="5.959023">
        <ele>123.537888</ele>
        <time>2024-01-29T23:53:41.149Z</time>
      </trkpt>
      <trkpt lat="50.807347" lon="5.959408">
        <ele>123.375921</ele>
        <time>2024-01-29T23:54:30.775Z</time>
      </trkpt>
      <trkpt lat="50.807168" lon="5.959647">
        <ele>123.266732</ele>
        <time>2024-01-29T23:55:03.986Z</time>
      </trkpt>
      <trkpt lat="50.807073" lon="5.959821">
        <ele>123.198987</ele>
        <time>2024-01-29T23:55:24.434Z</time>
      </trkpt>
      <trkpt lat="50.806894" lon="5.960279">
        <ele>123.040332</ele>
        <time>2024-01-29T23:56:12.910Z</time>
      </trkpt>
      <trkpt lat="50.807073" lon="5.959821">
        <ele>122.929622</ele>
        <time>2024-01-29T23:57:01.216Z</time>
      </trkpt>
      <trkpt lat="50.807168" lon="5.959647">
        <ele>122.929622</ele>
        <time>2024-01-29T23:57:21.686Z</time>
      </trkpt>
      <trkpt lat="50.807347" lon="5.959408">
        <ele>122.929622</ele>
        <time>2024-01-29T23:57:55.830Z</time>
      </trkpt>
      <trkpt lat="50.807990" lon="5.958754">
        <ele>122.929622</ele>
        <time>2024-01-29T23:59:46.703Z</time>
      </trkpt>
      <trkpt lat="50.808125" lon="5.958816">
        <ele>122.929622</ele>
        <time>2024-01-30T00:00:06.507Z</time>
      </trkpt>
      <trkpt lat="50.808178" lon="5.958675">
        <ele>122.929622</ele>
        <time>2024-01-30T00:00:21.644Z</time>
      </trkpt>
      <trkpt lat="50.808321" lon="5.958458">
        <ele>122.929622</ele>
        <time>2024-01-30T00:00:50.064Z</time>
      </trkpt>
      <trkpt lat="50.808249" lon="5.958318">
        <ele>122.929622</ele>
        <time>2024-01-30T00:01:06.747Z</time>
      </trkpt>
      <trkpt lat="50.808233" lon="5.958235">
        <ele>122.929622</ele>
        <time>2024-01-30T00:01:14.842Z</time>
      </trkpt>
      <trkpt lat="50.808263" lon="5.958072">
        <ele>122.929622</ele>
        <time>2024-01-30T00:01:30.411Z</time>
      </trkpt>
      <trkpt lat="50.808353" lon="5.957861">
        <ele>122.929622</ele>
        <time>2024-01-30T00:01:53.541Z</time>
      </trkpt>
      <trkpt lat="50.808359" lon="5.957848">
        <ele>122.929622</ele>
        <time>2024-01-30T00:01:55.046Z</time>
      </trkpt>
      <trkpt lat="50.808353" lon="5.957861">
        <ele>122.929622</ele>
        <time>2024-01-30T00:01:56.536Z</time>
      </trkpt>
    </trkseg>
  </trk>
</gpx>